createdAt,value
2023-04-09T00:01:28.430Z,26.35
2023-04-09T00:03:56.509Z,26.55
2023-04-09T00:06:24.421Z,27.65
2023-04-09T00:08:52.569Z,29.27
2023-04-09T00:11:23.536Z,25.53
2023-04-09T00:13:51.714Z,26.25
2023-04-09T00:16:19.730Z,28.30
2023-04-09T00:18:47.862Z,28.35
2023-04-09T00:21:16.922Z,28.00
2023-04-09T00:23:45.064Z,22.60
2023-04-09T00:26:12.710Z,30.33
2023-04-09T00:28:42.159Z,31.15
2023-04-09T00:31:11.125Z,27.08
2023-04-09T00:33:39.150Z,35.95
2023-04-09T00:36:06.987Z,36.47
2023-04-09T00:38:36.456Z,38.72
2023-04-09T00:41:04.076Z,31.40
2023-04-09T00:43:32.230Z,29.00
2023-04-09T00:46:01.077Z,23.77
2023-04-09T00:48:29.437Z,25.53
2023-04-09T00:50:57.208Z,24.65
2023-04-09T00:53:26.191Z,24.73
2023-04-09T00:55:55.801Z,25.02
2023-04-09T00:58:23.964Z,21.50
2023-04-09T01:00:51.721Z,23.17
2023-04-09T01:03:19.977Z,24.55
2023-04-09T01:06:06.134Z,33.60
2023-04-09T01:09:17.000Z,27.85
2023-04-09T01:12:05.164Z,26.63
2023-04-09T01:14:39.926Z,32.97
2023-04-09T01:17:22.931Z,28.33
2023-04-09T01:20:10.898Z,27.67
2023-04-09T01:23:06.297Z,27.75
2023-04-09T01:26:07.681Z,24.73
2023-04-09T01:28:48.180Z,26.30
2023-04-09T01:31:20.616Z,22.35
2023-04-09T01:33:48.586Z,25.98
2023-04-09T01:36:17.457Z,22.95
2023-04-09T01:38:46.457Z,26.05
2023-04-09T01:41:17.728Z,23.63
2023-04-09T01:43:46.287Z,25.50
2023-04-09T01:46:16.641Z,24.10
2023-04-09T01:48:45.301Z,26.48
2023-04-09T01:51:14.618Z,22.45
2023-04-09T01:53:42.961Z,21.13
2023-04-09T01:56:11.017Z,22.85
2023-04-09T01:58:39.075Z,24.02
2023-04-09T02:01:13.134Z,23.60
2023-04-09T02:03:52.641Z,22.17
2023-04-09T02:06:42.805Z,24.67
2023-04-09T02:09:11.776Z,23.13
2023-04-09T02:11:42.855Z,23.13
2023-04-09T02:14:12.847Z,23.50
2023-04-09T02:16:41.151Z,24.52
2023-04-09T02:19:09.066Z,24.07
2023-04-09T02:21:37.259Z,22.67
2023-04-09T02:24:05.252Z,22.08
2023-04-09T02:26:33.107Z,27.08
2023-04-09T02:29:01.957Z,24.13
2023-04-09T02:31:29.973Z,25.90
2023-04-09T02:33:57.861Z,25.95
2023-04-09T02:36:26.908Z,26.50
2023-04-09T02:38:54.811Z,25.15
2023-04-09T02:41:22.747Z,26.98
2023-04-09T02:43:50.694Z,25.57
2023-04-09T02:46:18.798Z,25.25
2023-04-09T02:48:47.028Z,26.35
2023-04-09T02:51:15.183Z,24.15
2023-04-09T02:53:43.157Z,26.85
2023-04-09T02:56:11.582Z,31.57
2023-04-09T02:58:39.518Z,26.80
2023-04-09T03:01:07.863Z,31.60
2023-04-09T03:03:37.620Z,28.77
2023-04-09T03:06:05.895Z,27.25
2023-04-09T03:08:33.885Z,34.93
2023-04-09T03:11:02.248Z,33.30
2023-04-09T03:13:30.101Z,29.67
2023-04-09T03:15:58.450Z,32.20
2023-04-09T03:18:26.367Z,32.53
2023-04-09T03:20:54.502Z,27.77
2023-04-09T03:23:22.532Z,28.55
2023-04-09T03:26:04.221Z,29.95
2023-04-09T03:28:37.043Z,31.05
2023-04-09T03:31:05.482Z,32.25
2023-04-09T03:33:37.793Z,29.90
2023-04-09T03:36:06.999Z,28.67
2023-04-09T03:39:04.252Z,24.98
2023-04-09T03:41:45.850Z,22.40
2023-04-09T03:44:17.582Z,29.48
2023-04-09T03:46:57.454Z,22.77
2023-04-09T03:49:26.378Z,24.52
2023-04-09T03:51:57.647Z,24.27
2023-04-09T03:54:33.995Z,28.30
2023-04-09T03:57:04.936Z,26.17
2023-04-09T03:59:34.413Z,27.87
2023-04-09T04:02:03.080Z,37.92
2023-04-09T04:04:33.514Z,38.17
2023-04-09T04:07:03.949Z,37.30
2023-04-09T04:09:38.041Z,38.08
2023-04-09T04:12:10.920Z,42.13
2023-04-09T04:14:59.145Z,34.65
2023-04-09T04:17:36.317Z,38.92
2023-04-09T04:20:08.561Z,34.47
2023-04-09T04:22:48.836Z,34.85
2023-04-09T04:25:17.148Z,34.90
2023-04-09T04:27:46.763Z,35.88
2023-04-09T04:30:16.752Z,46.00
2023-04-09T04:33:02.384Z,42.22
2023-04-09T04:35:37.720Z,37.55
2023-04-09T04:38:08.597Z,44.10
2023-04-09T04:40:38.891Z,39.33
2023-04-09T04:43:07.753Z,40.13
2023-04-09T04:45:36.846Z,37.47
2023-04-09T04:48:10.710Z,38.08
2023-04-09T04:50:38.971Z,39.93
2023-04-09T04:53:10.760Z,40.70
2023-04-09T04:55:48.098Z,62.75
2023-04-09T04:58:23.494Z,35.30
2023-04-09T05:00:56.740Z,32.67
2023-04-09T05:03:27.449Z,34.47
2023-04-09T05:06:08.045Z,41.25
2023-04-09T05:08:42.688Z,34.65
2023-04-09T05:11:13.411Z,36.20
2023-04-09T05:13:43.530Z,30.02
2023-04-09T05:16:19.311Z,31.80
2023-04-09T05:18:54.868Z,34.55
2023-04-09T05:21:23.121Z,38.58
2023-04-09T05:23:54.919Z,35.60
2023-04-09T05:26:23.051Z,33.38
2023-04-09T05:28:55.744Z,37.33
2023-04-09T05:31:24.938Z,37.20
2023-04-09T05:34:15.724Z,42.15
2023-04-09T05:36:48.421Z,38.65
2023-04-09T05:39:17.065Z,31.63
2023-04-09T05:41:46.882Z,33.27
2023-04-09T05:44:41.556Z,33.25
2023-04-09T05:47:18.100Z,36.42
2023-04-09T05:50:02.866Z,31.48
2023-04-09T05:52:31.176Z,33.25
2023-04-09T05:54:59.525Z,29.47
2023-04-09T05:57:40.116Z,25.17
2023-04-09T06:00:08.785Z,23.98
2023-04-09T06:02:46.034Z,27.98
2023-04-09T06:05:14.650Z,26.88
2023-04-09T06:07:42.629Z,26.07
2023-04-09T06:10:11.141Z,24.83
2023-04-09T06:12:40.109Z,25.00
2023-04-09T06:15:08.549Z,25.13
2023-04-09T06:17:36.509Z,24.88
2023-04-09T06:20:05.377Z,25.30
2023-04-09T06:22:33.181Z,24.83
2023-04-09T06:25:01.670Z,25.13
2023-04-09T06:27:29.757Z,26.63
2023-04-09T06:29:57.987Z,23.25
2023-04-09T06:32:26.029Z,24.03
2023-04-09T06:34:54.304Z,24.23
2023-04-09T06:37:22.067Z,22.85
2023-04-09T06:40:00.376Z,24.45
2023-04-09T06:42:32.558Z,24.25
2023-04-09T06:45:21.541Z,22.27
2023-04-09T06:47:49.850Z,23.73
2023-04-09T06:50:18.192Z,24.17
2023-04-09T06:52:46.785Z,24.50
2023-04-09T06:55:20.274Z,22.27
2023-04-09T06:57:48.320Z,24.20
2023-04-09T07:00:16.949Z,23.13
2023-04-09T07:02:47.319Z,23.77
2023-04-09T07:05:15.913Z,22.38
2023-04-09T07:07:43.956Z,28.70
2023-04-09T07:10:12.229Z,23.53
2023-04-09T07:12:40.372Z,25.13
2023-04-09T07:15:09.098Z,24.95
2023-04-09T07:17:37.516Z,23.52
2023-04-09T07:20:06.232Z,24.35
2023-04-09T07:22:34.297Z,24.57
2023-04-09T07:25:02.640Z,22.23
2023-04-09T07:27:30.720Z,23.23
2023-04-09T07:30:00.361Z,23.05
2023-04-09T07:32:28.745Z,24.75
2023-04-09T07:34:57.835Z,24.07
2023-04-09T07:37:26.599Z,22.50
2023-04-09T07:39:55.082Z,24.30
2023-04-09T07:42:23.392Z,24.70
2023-04-09T07:44:51.879Z,24.83
2023-04-09T07:47:19.867Z,21.20
2023-04-09T07:49:48.184Z,22.15
2023-04-09T07:52:16.366Z,23.33
2023-04-09T07:54:44.597Z,22.95
2023-04-09T07:57:12.600Z,21.90
2023-04-09T07:59:40.855Z,21.50
2023-04-09T08:02:13.441Z,21.23
2023-04-09T08:04:43.794Z,22.38
2023-04-09T08:07:12.402Z,21.02
2023-04-09T08:09:41.034Z,25.25
2023-04-09T08:12:08.971Z,20.47
2023-04-09T08:14:37.429Z,19.55
2023-04-09T08:17:05.524Z,21.10
2023-04-09T08:19:33.994Z,22.23
2023-04-09T08:22:02.522Z,22.55
2023-04-09T08:24:31.672Z,22.07
2023-04-09T08:26:59.520Z,19.58
2023-04-09T08:29:28.108Z,21.27
2023-04-09T08:31:56.040Z,17.95
2023-04-09T08:34:24.483Z,19.60
2023-04-09T08:36:53.086Z,18.20
2023-04-09T08:39:22.674Z,19.27
2023-04-09T08:41:52.476Z,17.88
2023-04-09T08:44:22.502Z,19.60
2023-04-09T08:46:50.434Z,18.67
2023-04-09T08:49:18.773Z,18.20
2023-04-09T08:51:47.921Z,20.15
2023-04-09T08:54:20.373Z,18.35
2023-04-09T08:56:48.845Z,19.45
2023-04-09T08:59:21.246Z,19.15
2023-04-09T09:01:54.811Z,18.77
2023-04-09T09:04:23.814Z,18.25
2023-04-09T09:06:51.668Z,18.55
2023-04-09T09:09:20.309Z,17.17
2023-04-09T09:11:50.719Z,17.52
2023-04-09T09:14:20.647Z,17.80
2023-04-09T09:16:58.244Z,19.88
2023-04-09T09:19:31.051Z,25.17
2023-04-09T09:22:00.837Z,20.25
2023-04-09T09:24:30.059Z,25.20
2023-04-09T09:26:59.354Z,19.40
2023-04-09T09:29:29.115Z,19.35
2023-04-09T09:31:57.396Z,19.83
2023-04-09T09:34:26.433Z,18.65
2023-04-09T09:36:54.525Z,19.27
2023-04-09T09:39:22.874Z,20.50
2023-04-09T09:42:08.533Z,17.25
2023-04-09T09:44:37.166Z,16.38
2023-04-09T09:47:06.367Z,17.27
2023-04-09T09:49:34.849Z,15.18
2023-04-09T09:52:07.345Z,15.77
2023-04-09T09:58:54.868Z,16.05
2023-04-09T10:01:26.926Z,16.27
2023-04-09T10:04:00.160Z,18.17
2023-04-09T10:06:28.432Z,17.13
2023-04-09T10:09:04.730Z,15.23
2023-04-09T10:11:35.728Z,15.30
2023-04-09T10:14:05.769Z,14.65
2023-04-09T10:16:33.793Z,14.13
2023-04-09T10:19:12.964Z,15.07
2023-04-09T10:22:07.546Z,15.57
2023-04-09T10:24:42.692Z,16.20
2023-04-09T10:27:36.064Z,15.30
2023-04-09T10:30:07.862Z,14.27
2023-04-09T10:32:37.258Z,17.00
2023-04-09T10:35:06.593Z,14.80
2023-04-09T10:37:36.352Z,15.00
2023-04-09T10:40:05.149Z,16.00
2023-04-09T10:42:37.155Z,19.10
2023-04-09T10:45:14.710Z,17.07
2023-04-09T10:47:44.288Z,16.13
2023-04-09T10:50:17.630Z,15.32
2023-04-09T10:52:45.851Z,16.95
2023-04-09T10:55:44.964Z,13.80
2023-04-09T10:58:13.842Z,12.80
2023-04-09T11:00:51.333Z,15.60
2023-04-09T11:03:30.821Z,15.60
2023-04-09T11:06:03.529Z,14.95
2023-04-09T11:08:33.883Z,15.43
2023-04-09T11:11:03.061Z,15.97
2023-04-09T11:13:41.173Z,14.55
2023-04-09T11:16:22.605Z,12.40
2023-04-09T11:18:54.095Z,12.27
2023-04-09T11:21:28.140Z,12.15
2023-04-09T11:23:56.248Z,17.87
2023-04-09T11:26:31.494Z,16.80
2023-04-09T11:28:59.379Z,12.15
2023-04-09T11:31:29.522Z,11.85
2023-04-09T11:33:57.615Z,15.68
2023-04-09T11:36:28.058Z,12.00
2023-04-09T11:39:00.247Z,11.63
2023-04-09T11:41:38.191Z,12.35
2023-04-09T11:44:08.125Z,14.85
2023-04-09T11:46:37.176Z,11.73
2023-04-09T11:49:06.058Z,11.33
2023-04-09T11:51:35.919Z,10.85
2023-04-09T11:54:05.762Z,12.98
2023-04-09T11:56:36.698Z,9.93
2023-04-09T11:59:04.924Z,11.98
2023-04-09T12:01:34.210Z,11.13
2023-04-09T12:04:02.814Z,13.07
2023-04-09T12:06:32.179Z,10.18
2023-04-09T12:09:00.532Z,11.52
2023-04-09T12:11:32.980Z,11.98
2023-04-09T12:14:10.472Z,11.33
2023-04-09T12:16:41.760Z,10.82
2023-04-09T12:19:10.838Z,9.75
2023-04-09T12:21:55.904Z,11.98
2023-04-09T12:24:25.555Z,10.57
2023-04-09T12:26:53.743Z,10.53
2023-04-09T12:29:21.975Z,11.68
2023-04-09T12:31:50.299Z,11.50
2023-04-09T12:34:18.380Z,10.77
2023-04-09T12:36:46.766Z,11.55
2023-04-09T12:39:14.912Z,10.20
2023-04-09T12:41:43.650Z,9.98
2023-04-09T12:44:11.513Z,10.40
2023-04-09T12:46:39.781Z,9.18
2023-04-09T12:49:07.711Z,10.07
2023-04-09T12:51:36.312Z,10.53
2023-04-09T12:54:04.603Z,10.07
2023-04-09T12:56:33.017Z,11.38
2023-04-09T12:59:01.358Z,10.35
2023-04-09T13:01:29.939Z,10.18
2023-04-09T13:03:58.364Z,10.03
2023-04-09T13:06:26.792Z,12.20
2023-04-09T13:08:54.829Z,13.90
2023-04-09T13:11:22.939Z,13.40
2023-04-09T13:13:51.317Z,17.02
2023-04-09T13:16:19.592Z,10.03
2023-04-09T13:18:47.512Z,15.95
2023-04-09T13:21:19.102Z,11.98
2023-04-09T13:23:47.163Z,15.70
2023-04-09T13:26:15.349Z,15.30
2023-04-09T13:28:43.411Z,13.27
2023-04-09T13:31:12.140Z,14.82
2023-04-09T13:33:41.205Z,11.77
2023-04-09T13:36:09.442Z,14.30
2023-04-09T13:38:37.400Z,13.43
2023-04-09T13:41:06.481Z,12.47
2023-04-09T13:43:34.348Z,12.93
2023-04-09T13:46:05.752Z,12.48
2023-04-09T13:48:33.724Z,13.57
2023-04-09T13:51:03.920Z,14.20
2023-04-09T13:53:31.948Z,13.40
2023-04-09T13:56:00.124Z,12.52
2023-04-09T13:58:28.025Z,14.85
2023-04-09T14:00:56.176Z,11.27
2023-04-09T14:03:24.108Z,11.77
2023-04-09T14:05:52.350Z,19.73
2023-04-09T14:08:20.332Z,12.00
2023-04-09T14:10:48.553Z,13.73
2023-04-09T14:13:16.598Z,11.95
2023-04-09T14:15:47.375Z,14.20
2023-04-09T14:18:15.460Z,12.40
2023-04-09T14:20:43.884Z,16.58
2023-04-09T14:23:11.889Z,12.48
2023-04-09T14:25:40.139Z,11.38
2023-04-09T14:28:07.845Z,10.68
2023-04-09T14:30:36.427Z,11.53
2023-04-09T14:33:04.627Z,12.73
2023-04-09T14:35:32.896Z,12.30
2023-04-09T14:38:04.961Z,15.38
2023-04-09T14:40:33.214Z,15.80
2023-04-09T14:43:01.560Z,16.87
2023-04-09T14:45:30.850Z,18.20
2023-04-09T14:47:58.948Z,29.92
2023-04-09T14:50:27.236Z,29.27
2023-04-09T14:52:55.135Z,52.58
2023-04-09T14:55:28.509Z,16.73
2023-04-09T14:57:59.810Z,14.77
2023-04-09T15:00:28.269Z,11.88
2023-04-09T15:02:56.739Z,11.10
2023-04-09T15:05:25.460Z,13.73
2023-04-09T15:07:53.452Z,17.35
2023-04-09T15:10:21.818Z,12.43
2023-04-09T15:12:49.681Z,13.70
2023-04-09T15:15:18.662Z,11.97
2023-04-09T15:17:49.324Z,10.95
2023-04-09T15:20:17.812Z,11.80
2023-04-09T15:22:45.732Z,13.27
2023-04-09T15:25:14.616Z,12.82
2023-04-09T15:27:42.585Z,22.77
2023-04-09T15:30:10.997Z,14.68
2023-04-09T15:32:38.824Z,20.40
2023-04-09T15:35:07.648Z,39.65
2023-04-09T15:37:35.925Z,44.42
2023-04-09T15:40:04.842Z,15.40
2023-04-09T15:42:32.598Z,13.60
2023-04-09T15:45:00.954Z,11.65
2023-04-09T16:05:16.030Z,12.65
2023-04-09T16:07:45.507Z,12.65
2023-04-09T16:10:15.863Z,22.02
2023-04-09T16:12:44.327Z,13.80
2023-04-09T16:15:12.455Z,13.68
2023-04-09T16:17:41.363Z,14.02
2023-04-09T16:20:09.554Z,23.67
2023-04-09T16:22:37.961Z,13.73
2023-04-09T16:25:06.491Z,18.97
2023-04-09T16:27:34.919Z,13.55
2023-04-09T16:30:02.848Z,20.98
2023-04-09T16:32:31.465Z,19.02
2023-04-09T16:35:01.176Z,15.32
2023-04-09T16:37:29.893Z,19.33
2023-04-09T16:39:58.529Z,15.52
2023-04-09T16:42:27.796Z,16.90
2023-04-09T16:44:55.802Z,15.32
2023-04-09T16:47:24.339Z,16.70
2023-04-09T16:49:52.361Z,22.20
2023-04-09T16:52:20.601Z,23.88
2023-04-09T16:54:48.491Z,21.40
2023-04-09T16:57:17.136Z,20.50
2023-04-09T16:59:45.627Z,26.13
2023-04-09T17:02:14.024Z,20.47
2023-04-09T17:04:42.548Z,21.90
2023-04-09T17:07:10.929Z,24.58
2023-04-09T17:09:38.616Z,24.35
2023-04-09T17:12:13.187Z,23.70
2023-04-09T17:14:45.021Z,26.60
2023-04-09T17:17:15.456Z,25.02
2023-04-09T17:19:43.384Z,32.42
2023-04-09T17:22:13.784Z,31.60
2023-04-09T17:24:45.307Z,28.38
2023-04-09T17:27:13.692Z,18.53
2023-04-09T17:29:41.973Z,21.48
2023-04-09T17:32:10.048Z,19.75
2023-04-09T17:34:38.460Z,19.60
2023-04-09T17:37:06.801Z,21.83
2023-04-09T17:39:34.579Z,27.33
2023-04-09T17:42:05.552Z,23.83
2023-04-09T17:44:36.044Z,26.38
2023-04-09T17:47:05.245Z,20.25
2023-04-09T17:49:33.252Z,22.88
2023-04-09T17:52:02.117Z,34.00
2023-04-09T17:54:40.977Z,34.95
2023-04-09T17:57:09.658Z,30.65
2023-04-09T17:59:37.359Z,33.60
2023-04-09T18:02:06.052Z,34.88
2023-04-09T18:04:37.218Z,29.30
2023-04-09T18:07:05.582Z,31.02
2023-04-09T18:09:33.903Z,28.50
2023-04-09T18:12:03.169Z,27.95
2023-04-09T18:14:33.714Z,26.65
2023-04-09T18:17:02.274Z,26.13
2023-04-09T18:19:30.372Z,26.65
2023-04-09T18:21:58.938Z,25.60
2023-04-09T18:24:27.184Z,26.10
2023-04-09T18:26:56.042Z,23.40
2023-04-09T18:29:24.393Z,21.37
2023-04-09T18:31:52.919Z,21.38
2023-04-09T18:34:22.328Z,22.63
2023-04-09T18:36:50.979Z,24.75
2023-04-09T18:39:20.003Z,20.75
2023-04-09T18:41:49.054Z,25.87
2023-04-09T18:44:16.953Z,30.63
2023-04-09T18:46:45.884Z,37.22
2023-04-09T18:49:13.711Z,25.65
2023-04-09T18:51:42.314Z,21.80
2023-04-09T18:54:10.202Z,24.17
2023-04-09T18:56:38.595Z,25.50
2023-04-09T18:59:06.363Z,28.63
2023-04-09T19:01:38.173Z,28.45
2023-04-09T19:04:06.697Z,24.52
2023-04-09T19:06:36.505Z,23.70
2023-04-09T19:09:05.162Z,25.70
2023-04-09T19:11:33.208Z,24.73
2023-04-09T19:14:05.127Z,22.23
2023-04-09T19:19:33.618Z,22.43
2023-04-09T19:22:07.707Z,24.83
2023-04-09T19:24:36.246Z,22.10
2023-04-09T19:27:10.975Z,24.92
2023-04-09T19:29:39.264Z,25.20
2023-04-09T19:32:09.687Z,30.40
2023-04-09T19:34:38.372Z,25.35
2023-04-09T19:37:07.051Z,26.92
2023-04-09T19:39:34.887Z,21.60
2023-04-09T19:42:04.219Z,23.35
2023-04-09T19:44:32.364Z,23.63
2023-04-09T19:47:00.717Z,26.58
2023-04-09T19:49:29.852Z,34.72
2023-04-09T19:51:58.010Z,28.80
2023-04-09T19:54:26.062Z,35.90
2023-04-09T19:56:54.252Z,30.77
2023-04-09T19:59:22.146Z,27.65
2023-04-09T20:01:50.366Z,24.30
2023-04-09T20:04:18.684Z,21.65
2023-04-09T20:06:48.914Z,27.55
2023-04-09T20:09:18.923Z,28.53
2023-04-09T20:11:47.198Z,35.05
2023-04-09T20:14:15.156Z,22.13
2023-04-09T20:16:43.525Z,25.45
2023-04-09T20:19:11.472Z,27.85
2023-04-09T20:21:39.834Z,23.07
2023-04-09T20:24:07.700Z,29.65
2023-04-09T20:26:36.046Z,30.15
2023-04-09T20:29:03.834Z,31.60
2023-04-09T20:31:35.326Z,30.23
2023-04-09T20:34:03.344Z,26.10
2023-04-09T20:36:31.530Z,24.70
2023-04-09T20:38:59.782Z,24.83
2023-04-09T20:41:27.887Z,24.38
2023-04-09T20:43:56.156Z,26.17
2023-04-09T20:46:24.437Z,22.45
2023-04-09T20:48:52.814Z,24.90
2023-04-09T20:51:21.540Z,23.75
2023-04-09T20:53:49.738Z,23.30
2023-04-09T20:56:17.912Z,25.65
2023-04-09T20:58:45.815Z,22.93
2023-04-09T21:01:13.934Z,23.77
2023-04-09T21:03:42.149Z,22.30
2023-04-09T21:06:11.125Z,29.00
2023-04-09T21:08:43.031Z,29.60
2023-04-09T21:11:11.870Z,27.20
2023-04-09T21:13:53.764Z,29.70
2023-04-09T21:16:23.597Z,29.38
2023-04-09T21:18:51.927Z,26.83
2023-04-09T21:21:20.936Z,30.52
2023-04-09T21:23:48.743Z,32.17
2023-04-09T21:26:17.092Z,27.45
2023-04-09T21:28:46.333Z,24.48
2023-04-09T21:31:16.255Z,29.10
2023-04-09T21:33:43.993Z,26.42
2023-04-09T21:36:13.438Z,28.73
2023-04-09T21:38:41.125Z,30.48
2023-04-09T21:41:09.445Z,42.20
2023-04-09T21:43:38.698Z,34.85
2023-04-09T21:46:07.173Z,36.33
2023-04-09T21:48:40.221Z,29.50
2023-04-09T21:51:11.054Z,26.48
2023-04-09T21:53:42.150Z,28.05
2023-04-09T21:56:10.668Z,24.23
2023-04-09T21:58:38.404Z,24.05
2023-04-09T22:01:15.792Z,21.43
2023-04-09T22:03:50.967Z,21.20
2023-04-09T22:06:19.653Z,21.70
2023-04-09T22:08:55.663Z,22.80
2023-04-09T22:11:29.535Z,22.75
2023-04-09T22:13:57.969Z,23.03
2023-04-09T22:16:28.820Z,21.40
2023-04-09T22:18:57.180Z,20.17
2023-04-09T22:21:26.311Z,20.83
2023-04-09T22:23:57.240Z,21.73
2023-04-09T22:26:25.419Z,19.65
2023-04-09T22:28:53.331Z,24.00
2023-04-09T22:31:21.930Z,24.00
2023-04-09T22:33:49.792Z,20.05
2023-04-09T22:36:17.967Z,19.15
2023-04-09T22:38:45.991Z,19.77
2023-04-09T22:41:17.975Z,20.65
2023-04-09T22:43:46.041Z,19.13
2023-04-09T22:46:14.124Z,20.10
2023-04-09T22:48:44.955Z,21.13
2023-04-09T22:51:15.762Z,21.17
2023-04-09T22:53:43.593Z,22.45
2023-04-09T22:56:11.889Z,20.70
2023-04-09T22:58:40.455Z,21.92
2023-04-09T23:01:09.276Z,25.77
2023-04-09T23:03:37.139Z,25.40
2023-04-09T23:06:05.747Z,23.63
2023-04-09T23:08:33.424Z,22.30
2023-04-09T23:11:01.717Z,20.45
2023-04-09T23:13:29.378Z,21.98
2023-04-09T23:15:57.428Z,20.53
2023-04-09T23:18:25.212Z,23.05
2023-04-09T23:20:53.379Z,22.95
2023-04-09T23:23:21.028Z,30.98
2023-04-09T23:25:49.188Z,32.70
2023-04-09T23:28:16.847Z,23.95
2023-04-09T23:30:44.887Z,24.13
2023-04-09T23:33:13.629Z,21.08
2023-04-09T23:35:41.773Z,20.00
2023-04-09T23:38:09.516Z,23.00
2023-04-09T23:40:37.619Z,23.47
2023-04-09T23:43:05.310Z,23.48
2023-04-09T23:45:33.509Z,22.80
2023-04-09T23:48:01.286Z,21.45
2023-04-09T23:50:29.529Z,22.02
2023-04-09T23:53:00.944Z,24.05
2023-04-09T23:55:29.154Z,23.92
2023-04-09T23:57:57.157Z,21.60
